Terminal Aerodrome Forecast
Issued by NWS

Home | Current Version | Previous Version | Graphics & Text | Print | Product List | Glossary On
Versions: 1 2 3 4 5 6 7 8 9 10 11 12 13 14 15
000
FTUS43 KBIS 160800 AAA
TAFJMS
TAF AMD
KJMS 160830Z 1609/1706 34012KT P6SM SCT018
     FM161800 36008KT P6SM SCT015
     FM170000 VRB04KT P6SM SKC=

USA.gov is the U.S. government's official web portal to all federal, state and local government web resources and services.